• Join FlightAware (Why Join?)
  • Login
  • US Flag 
03:00AM EDT


 

Airport Tracker/Info


-or-


 

Live Flight TrackerFlight Track Log ✈ N172KD ✈ 26-Apr-2013 ✈ KMYR - KMTN

Flight Track Log - Related Links

Times and Time Zones

All times are in EDT time to prevent confusion due to time zone crossing. See the N172KD flight status page for this flight to view local times or setup timezone preferences in your user account.

Time Position Orientation Groundspeed Altitude Reporting Facility
EDT Latitude Longitude Course Direction KTS MPH feet Rate Location/Type
02:05PM 33.7688 -78.7582 48° Northeast  Level FlightAware Approximate
02:06PM 33.7883 -78.7323 48° Northeast  Level FlightAware Approximate
02:07PM 33.8115 -78.7167 North  Level FlightAware Approximate
02:08PM 33.8350 -78.6983 40° Northeast  Level FlightAware Approximate
02:09PM 33.8583 -78.6776 30° Northeast  Level FlightAware Approximate
02:10PM 33.8835 -78.6602 30° Northeast  Level FlightAware Approximate
02:11PM 33.9086 -78.6428 30° Northeast  Level FlightAware Approximate
02:12PM 33.9338 -78.6254 30° Northeast  Level FlightAware Approximate
02:13PM 33.9590 -78.6080 30° Northeast  Level FlightAware Approximate
02:14PM 33.9842 -78.5906 30° Northeast  Level FlightAware Approximate
02:15PM 34.0093 -78.5731 30° Northeast  Level FlightAware Approximate
02:16PM 34.0345 -78.5557 30° Northeast  Level FlightAware Approximate
02:17PM 34.0596 -78.5382 30° Northeast  Level FlightAware Approximate
02:18PM 34.0850 -78.5211 29° Northeast  Level FlightAware Approximate
02:19PM 34.1104 -78.5042 29° Northeast  Level FlightAware Approximate
02:20PM 34.1358 -78.4873 29° Northeast  Level FlightAware Approximate
02:21PM 34.1612 -78.4704 29° Northeast  Level FlightAware Approximate
02:22PM 34.1866 -78.4534 29° Northeast  Level FlightAware Approximate
02:23PM 34.2120 -78.4364 29° Northeast  Level FlightAware Approximate
02:24PM 34.2362 -78.4171 35° Northeast  Level FlightAware Approximate
02:25PM 34.2601 -78.3972 35° Northeast  Level FlightAware Approximate
02:26PM 34.2840 -78.3772 35° Northeast  Level FlightAware Approximate
02:27PM 34.3079 -78.3573 35° Northeast  Level FlightAware Approximate
02:28PM 34.3325 -78.3387 30° Northeast  Level FlightAware Approximate
02:29PM 34.3575 -78.3209 30° Northeast  Level FlightAware Approximate
02:30PM 34.3825 -78.3031 30° Northeast  Level FlightAware Approximate
02:31PM 34.4075 -78.2852 30° Northeast  Level FlightAware Approximate
02:32PM 34.4325 -78.2674 30° Northeast  Level FlightAware Approximate
02:33PM 34.4575 -78.2495 31° Northeast  Level FlightAware Approximate
02:34PM 34.4825 -78.2316 31° Northeast  Level FlightAware Approximate
02:35PM 34.5075 -78.2137 31° Northeast  Level FlightAware Approximate
02:36PM 34.5325 -78.1958 31° Northeast  Level FlightAware Approximate
02:37PM 34.5574 -78.1778 32° Northeast  Level FlightAware Approximate
02:38PM 34.5821 -78.1593 32° Northeast  Level FlightAware Approximate
02:39PM 34.6068 -78.1407 32° Northeast  Level FlightAware Approximate
02:40PM 34.6315 -78.1222 32° Northeast  Level FlightAware Approximate
02:41PM 34.6572 -78.1029 32° Northeast  Level FlightAware Approximate
02:42PM 34.6829 -78.0836 32° Northeast  Level FlightAware Approximate
02:43PM 34.7089 -78.0648 31° Northeast  Level FlightAware Approximate
02:44PM 34.7348 -78.0460 31° Northeast  Level FlightAware Approximate
02:45PM 34.7607 -78.0272 31° Northeast  Level FlightAware Approximate
02:46PM 34.7866 -78.0083 31° Northeast  Level FlightAware Approximate
02:47PM 34.8125 -77.9894 31° Northeast  Level FlightAware Approximate
02:48PM 34.8385 -77.9706 31° Northeast  Level FlightAware Approximate
02:48PM 34.7642 -78.0469 10° North 118 136 9,000  Level Washington Center
02:49PM 34.8644 -77.9517 31° Northeast  Level FlightAware Approximate
02:49PM 34.7706 -78.0444 18° North 118 136 9,000  Level Washington Center
02:50PM 34.8938 -77.9446 North  Level FlightAware Approximate
02:50PM 34.8044 -78.0203 30° Northeast 124 143 9,000  Level Washington Center
02:51PM 34.9236 -77.9386 North  Level FlightAware Approximate
02:51PM 34.8300 -77.9983 35° Northeast 119 137 9,000  Level Washington Center
02:52PM 34.9534 -77.9326 10° North  Level FlightAware Approximate
02:52PM 34.8575 -77.9789 30° Northeast 112 129 9,000  Level Washington Center
02:53PM 34.9832 -77.9264 10° North  Level FlightAware Approximate
02:53PM 34.8889 -77.9672 17° North 115 132 9,000  Level Washington Center
02:54PM 35.0130 -77.9201 10° North  Level FlightAware Approximate
02:54PM 34.9206 -77.9578 14° North 110 127 9,000  Level Washington Center
02:55PM 34.9497 -77.9511 11° North 111 128 9,000  Level Washington Center
02:56PM 34.9792 -77.9444 11° North 109 125 9,000  Level Washington Center
02:57PM 35.0106 -77.9353 13° North 110 127 9,000  Level Washington Center
02:58PM 35.0442 -77.9286 North 111 128 9,000  Level Washington Center
02:59PM 35.0733 -77.9244 North 113 130 9,000  Level Washington Center
03:00PM 35.1069 -77.9150 13° North 113 130 9,000  Level Washington Center
03:01PM 35.1342 -77.9108 North 112 129 9,000  Level Washington Center
03:02PM 35.1636 -77.9042 10° North 110 127 9,000  Level Washington Center
03:03PM 35.1928 -77.8972 11° North 110 127 9,000  Level Washington Center
03:04PM 35.2242 -77.8906 10° North 106 122 9,000  Level Washington Center
03:05PM 35.2517 -77.8836 12° North 109 125 9,000  Level Washington Center
03:06PM 35.2831 -77.8744 13° North 108 124 9,000  Level Washington Center
03:07PM 35.3186 -77.8653 12° North 114 131 9,000  Level Washington Center
03:08PM 35.3481 -77.8583 11° North 119 137 9,000  Level Washington Center
03:09PM 35.3794 -77.8492 13° North 113 130 9,000  Level Washington Center
03:10PM 35.4089 -77.8422 11° North 124 143 9,000  Level Washington Center
03:11PM 35.4422 -77.8356 North 124 143 9,000  Level Washington Center
03:12PM 35.4717 -77.8289 10° North 124 143 9,000  Level Washington Center
03:13PM 35.5031 -77.8194 14° North 119 137 9,000  Level Washington Center
03:14PM 35.5325 -77.8100 15° North 114 131 9,000  Level Washington Center
03:15PM 35.5639 -77.8058 North 108 124 9,000  Level Washington Center
03:16PM 35.5953 -77.7964 14° North 108 124 9,000  Level Washington Center
03:17PM 35.6267 -77.7897 10° North 108 124 9,000  Level Washington Center
03:18PM 35.6583 -77.7803 14° North 108 124 9,000  Level Washington Center
03:19PM 35.6897 -77.7736 10° North 108 124 9,000  Level Washington Center
03:20PM 35.7275 -77.7642 11° North 113 130 9,000  Level Washington Center
03:21PM 35.7589 -77.7600 North 113 130 9,000  Level Washington Center
03:22PM 35.7903 -77.7506 14° North 113 130 9,000  Level Washington Center
03:23PM 35.8217 -77.7411 14° North 113 130 9,000  Level Washington Center
03:24PM 35.8553 -77.7369 North 113 130 9,000  Level Washington Center
03:25PM 35.8844 -77.7275 15° North 113 130 9,000  Level Washington Center
03:26PM 35.9161 -77.7181 14° North 113 130 9,000  Level Washington Center
03:27PM 35.9453 -77.7111 11° North 108 124 9,000  Level Washington Center
03:28PM 35.9747 -77.7044 10° North 108 124 9,000  Level Washington Center
03:29PM 36.0042 -77.6897 22° Northeast 108 124 9,000  Level Washington Center
03:30PM 36.0336 -77.6778 18° North 108 124 9,000  Level Washington Center
03:31PM 36.0608 -77.6656 20° North 108 124 9,000  Level Washington Center
03:32PM 36.0883 -77.6533 20° North 103 119 9,000  Level Washington Center
03:33PM 36.1197 -77.6414 17° North 109 125 9,000  Level Washington Center
03:34PM 36.1450 -77.6267 25° Northeast 103 119 9,000  Level Washington Center
03:35PM 36.1764 -77.6169 14° North 103 119 9,000  Level Washington Center
03:36PM 36.2058 -77.6025 22° Northeast 103 119 9,000  Level Washington Center
03:37PM 36.2375 -77.5931 14° North 109 125 9,000  Level Washington Center
03:38PM 36.2669 -77.5783 22° Northeast 109 125 9,000  Level Washington Center
03:39PM 36.2942 -77.5633 24° Northeast 109 125 9,000  Level Washington Center
03:40PM 36.3236 -77.5486 22° Northeast 109 125 9,000  Level Washington Center
03:41PM 36.3553 -77.5339 21° North 109 125 9,000  Level Washington Center
03:42PM 36.3847 -77.5192 22° Northeast 109 125 9,000  Level Washington Center
03:43PM 36.4142 -77.5044 22° Northeast 109 125 9,000  Level Washington Center
03:44PM 36.4436 -77.4922 18° North 114 131 9,000  Level Washington Center
03:45PM 36.4731 -77.4750 25° Northeast 114 131 9,000  Level Washington Center
03:46PM 36.5025 -77.4603 22° Northeast 114 131 9,000  Level Washington Center
03:47PM 36.5319 -77.4478 19° North 114 131 9,000  Level Washington Center
03:48PM 36.5614 -77.4331 22° Northeast 114 131 9,000  Level Washington Center
03:49PM 36.5886 -77.4208 20° North 114 131 9,100  Climbing Washington Center
03:50PM 36.6161 -77.4033 27° Northeast 114 131 9,000 -60 Descending Washington Center
03:51PM 36.6433 -77.3911 20° North 114 131 9,000  Level Washington Center
03:52PM 36.6728 -77.3761 22° Northeast 114 131 9,000  Level Washington Center
03:53PM 36.7000 -77.3639 20° North 114 131 9,000  Level Washington Center
03:54PM 36.7317 -77.3464 24° Northeast 114 131 9,000  Level Washington Center
03:55PM 36.7608 -77.3342 19° North 114 131 9,000  Level Washington Center
03:56PM 36.7903 -77.3219 18° North 109 125 9,000  Level Washington Center
03:57PM 36.8197 -77.3069 22° Northeast 109 125 9,000  Level Washington Center
03:58PM 36.8492 -77.2919 22° Northeast 109 125 9,000  Level Washington Center
03:59PM 36.8786 -77.2797 18° North 109 125 9,000  Level Washington Center
04:00PM 36.9081 -77.2622 25° Northeast 109 125 9,000  Level Washington Center
04:01PM 36.9353 -77.2472 24° Northeast 109 125 9,000  Level Washington Center
04:02PM 36.9647 -77.2322 22° Northeast 109 125 9,000  Level Washington Center
04:03PM 36.9922 -77.2172 24° Northeast 109 125 9,000  Level Washington Center
04:04PM 37.0194 -77.2047 20° North 109 125 9,000  Level Washington Center
04:05PM 37.0486 -77.1922 19° North 109 125 9,000  Level Washington Center
04:06PM 37.0781 -77.1772 22° Northeast 109 125 9,000  Level Washington Center
04:08PM 37.1500 -77.1333 26° Northeast 118 136 9,000  Level Potomac TRACON
04:09PM 37.1833 -77.1333 360° North 122 140 9,000  Level Potomac TRACON
04:10PM 37.2167 -77.1167 22° Northeast 123 142 9,000  Level Potomac TRACON
04:11PM 37.2500 -77.1000 22° Northeast 121 139 9,000  Level Potomac TRACON
04:12PM 37.2833 -77.0833 22° Northeast 116 133 9,000  Level Potomac TRACON
04:13PM 37.3000 -77.0667 38° Northeast 121 139 9,000  Level Potomac TRACON
04:14PM 37.3133 -77.0619 16° North 115 132 9,000  Level Washington Center
04:15PM 37.3406 -77.0469 24° Northeast 111 128 9,000  Level Washington Center
04:16PM 37.3700 -77.0317 22° Northeast 114 131 9,000  Level Washington Center
04:17PM 37.3972 -77.0167 24° Northeast 119 137 9,000 -60 Level Washington Center
04:18PM 37.4308 -77.0067 13° North 119 137 8,900  Descending Washington Center
04:19PM 37.4561 -76.9861 33° Northeast 111 128 9,000  Climbing Washington Center
04:20PM 37.4894 -76.9711 20° North 116 133 9,000  Level Washington Center
04:21PM 37.5167 -76.9611 16° North 110 127 9,000  Level Washington Center
04:22PM 37.5419 -76.9433 29° Northeast 116 133 9,000  Level Washington Center
04:23PM 37.5714 -76.9308 19° North 116 133 9,000  Level Washington Center
04:24PM 37.5986 -76.9156 24° Northeast 116 133 9,000  Level Washington Center
04:25PM 37.6300 -76.9003 21° North 116 133 9,000  Level Washington Center
04:26PM 37.6594 -76.8850 22° Northeast 118 136 9,000  Level Washington Center
04:27PM 37.6908 -76.8697 21° North 118 136 9,000  Level Washington Center
04:28PM 37.7203 -76.8572 19° North 108 124 9,000  Level Washington Center
04:29PM 37.7475 -76.8419 24° Northeast 114 131 9,000  Level Washington Center
04:30PM 37.7747 -76.8267 24° Northeast 114 131 9,000  Level Washington Center
04:31PM 37.8042 -76.8139 19° North 114 131 9,000  Level Washington Center
04:32PM 37.8356 -76.7986 21° North 114 131 9,000  Level Washington Center
04:33PM 37.8650 -76.7861 19° North 114 131 9,000  Level Washington Center
04:34PM 37.8942 -76.7706 23° Northeast 114 131 9,000  Level Washington Center
04:35PM 37.9236 -76.7528 25° Northeast 114 131 9,000  Level Washington Center
04:36PM 37.9531 -76.7372 23° Northeast 114 131 9,000  Level Washington Center
04:37PM 37.9822 -76.7219 22° Northeast 114 131 9,000  Level Washington Center
04:38PM 38.0094 -76.7092 20° North 114 131 9,000  Level Washington Center
04:39PM 38.0367 -76.6911 28° Northeast 109 125 9,000  Level Washington Center
04:40PM 38.0661 -76.6758 22° Northeast 109 125 9,000  Level Washington Center
04:41PM 38.0997 -76.6578 23° Northeast 109 125 9,000  Level Washington Center
04:42PM 38.1289 -76.6369 29° Northeast 114 131 9,000  Level Washington Center
04:43PM 38.1564 -76.6164 30° Northeast 114 131 9,000  Level Washington Center
04:44PM 38.1836 -76.5981 28° Northeast 114 131 9,000  Level Washington Center
04:45PM 38.2108 -76.5775 31° Northeast 114 131 9,000  Level Washington Center
04:46PM 38.2403 -76.5592 26° Northeast 114 131 9,000  Level Washington Center
04:47PM 38.2675 -76.5386 31° Northeast 114 131 9,000  Level Washington Center
04:48PM 38.2969 -76.5178 29° Northeast 114 131 9,000  Level Washington Center
04:49PM 38.3242 -76.5022 24° Northeast 109 125 9,000  Level Washington Center
04:50PM 38.3514 -76.4814 31° Northeast 109 125 9,000  Level Washington Center
04:51PM 38.3806 -76.4658 23° Northeast 114 131 9,000  Level Washington Center
04:52PM 38.4100 -76.4475 26° Northeast 109 125 9,000  Level Washington Center
04:53PM 38.4372 -76.4267 31° Northeast 109 125 9,000  Level Washington Center
04:54PM 38.4664 -76.4083 26° Northeast 109 125 9,000  Level Washington Center
04:55PM 38.4936 -76.3903 27° Northeast 109 125 9,000  Level Washington Center
04:56PM 38.5208 -76.3692 31° Northeast 114 131 9,000  Level Washington Center
04:57PM 38.5522 -76.3617 11° North 109 125 9,000  Level Washington Center
04:58PM 38.5794 -76.3644 355° North 103 119 9,000  Level Washington Center
04:59PM 38.6064 -76.3594 North 103 119 9,000  Level Washington Center
05:00PM 38.6358 -76.3572 North 103 119 9,000  Level Washington Center
05:01PM 38.6628 -76.3519 North 103 119 9,000 -300 Level Washington Center
05:02PM 38.6942 -76.3525 359° North 103 119 8,500 -600 Descending Washington Center
05:04PM 38.7833 -76.3500 North 114 131 7,100 -600 Descending Potomac TRACON
05:05PM 38.8167 -76.3500 360° North 110 127 6,400 -660 Descending Potomac TRACON
05:06PM 38.8333 -76.3333 38° Northeast 111 128 5,800 -660 Descending Potomac TRACON
05:07PM 38.8667 -76.3333 360° North 112 129 5,100 -720 Descending Potomac TRACON
05:08PM 38.9000 -76.3333 360° North 112 129 4,400 -780 Descending Potomac TRACON
05:09PM 38.9333 -76.3333 360° North 107 123 3,600 -720 Descending Potomac TRACON
05:10PM 38.9667 -76.3333 360° North 111 128 3,000 -360 Descending Potomac TRACON
05:11PM 39.0000 -76.3333 360° North 111 128 2,900 -240 Descending Potomac TRACON
05:12PM 39.0333 -76.3333 360° North 104 120 2,600 -360 Descending Potomac TRACON
05:13PM 39.0500 -76.3333 360° North 98 113 2,200 -360 Descending Potomac TRACON
05:14PM 39.0833 -76.3333 360° North 87 100 2,000 -300 Descending Potomac TRACON
05:15PM 39.1000 -76.3333 360° North 93 107 1,600 -300 Descending Potomac TRACON
05:16PM 39.1333 -76.3500 339° North 95 109 1,400 -120 Descending Potomac TRACON
05:17PM 39.1500 -76.3500 360° North 101 116 1,400  Level Potomac TRACON
05:18PM 39.1833 -76.3500 360° North 100 115 1,400 -60 Level Potomac TRACON
05:19PM 39.2167 -76.3667 339° North 102 117 1,300 -180 Descending Potomac TRACON
05:20PM 39.2333 -76.3667 360° North 99 114 1,100 -180 Descending Potomac TRACON
05:21PM 39.2667 -76.3667 360° North 98 113 1,000 -180 Descending Potomac TRACON
05:22PM 39.2833 -76.3667 360° North 88 101 800 -300 Descending Potomac TRACON
05:23PM 39.3000 -76.3833 322° Northwest 65 75 500 -360 Descending Potomac TRACON
05:25PM 39.3167 -76.4000 North  Level FlightAware Approximate
05:32PM 39.3257 -76.4138 North  Level Estimated
05:33PM 39.3257 -76.4138 North  Level Estimated
05:34PM 39.3257 -76.4138 North  Level Estimated
05:35PM 39.3257 -76.4138 North  Level Estimated